PWSweather.com
Personal Weather Stations
Station Observations
SELKIRK1
Ontario, Selkirk, ON N0A 1P0

OntarioSelkirk, ON N0A 1P0

Lat: 42.8083652, Lon: -79.94971040000001

Elevation: 583

Station Type: Acurite 5 in 1

http://gavinsurf.com

Latest ConditionsUpdated 3:15:01 AM EST Monday, Nov 19, 2018
Currently Today's Max Today's Min Today's Average
Temperature 32.4°F0.2°C 34.4°F1.3°C 32.4°F0.2°C 34.0°F1.1°C
Dew Point 30.0°F-1.1°C 33.9°F1.1°C 30.0°F-1.1°C 32.6°F0.3°C
Winds 3.5 mph NW5.6 kmh NW 4.6 mph -7.4 kmh - - 2.4 mph 3.9 kmh
Wind Gusts 5.8 mph9.3 kmh 5.8 mph9.3 kmh - -
Humidity 91% 98% 90% 94%
Pressure 31.80 in1076.9 mb 31.80 in1076.9 mb 31.80 in1076.9 mb -
Hour Temp Dew Point Humidity Winds Wind Gusts Pressure Precip Precip Rate Daily Precip Total
03:15 AM 32.4°F0.2°C 30.0°F-1.1°C 91% 3.5 mph NW5.6 kmh NW 5.8 mph9.3 kmh 31.80 in1076.9 mb - 0.00 in0.0 mm 0.00 in0.0 mm
03:10 AM 32.4°F0.2°C 30.0°F-1.1°C 91% 3.5 mph NW5.6 kmh NW 4.6 mph7.4 kmh 31.80 in1076.9 mb - 0.00 in0.0 mm 0.00 in0.0 mm
03:00 AM 32.4°F0.2°C 30.0°F-1.1°C 91% 3.5 mph NNW5.6 kmh NNW 3.5 mph5.6 kmh 31.80 in1076.9 mb - 0.00 in0.0 mm 0.00 in0.0 mm
02:55 AM 32.6°F0.3°C 30.2°F-1.0°C 91% 2.3 mph NW3.7 kmh NW 2.3 mph3.7 kmh 31.80 in1076.9 mb - 0.00 in0.0 mm 0.00 in0.0 mm
02:50 AM 32.9°F0.5°C 30.5°F-0.8°C 91% 2.3 mph NW3.7 kmh NW 3.5 mph5.6 kmh 31.80 in1076.9 mb - 0.00 in0.0 mm 0.00 in0.0 mm
02:45 AM 33.1°F0.6°C 30.7°F-0.7°C 91% 3.5 mph WNW5.6 kmh WNW 3.5 mph5.6 kmh 31.80 in1076.9 mb - 0.00 in0.0 mm 0.00 in0.0 mm
02:40 AM 33.5°F0.8°C 30.9°F-0.6°C 90% 3.5 mph NW5.6 kmh NW 3.5 mph5.6 kmh 31.80 in1076.9 mb - 0.00 in0.0 mm 0.00 in0.0 mm
02:35 AM 33.7°F0.9°C 31.1°F-0.5°C 90% 2.3 mph WNW3.7 kmh WNW 4.6 mph7.4 kmh 31.80 in1076.9 mb - 0.00 in0.0 mm 0.00 in0.0 mm
02:30 AM 34.1°F1.2°C 31.5°F-0.3°C 90% 3.5 mph NW5.6 kmh NW 4.6 mph7.4 kmh 31.80 in1076.9 mb - 0.00 in0.0 mm 0.00 in0.0 mm
02:25 AM 34.4°F1.3°C 31.8°F-0.1°C 90% 4.6 mph W7.4 kmh W 3.5 mph5.6 kmh 31.80 in1076.9 mb - 0.00 in0.0 mm 0.00 in0.0 mm
02:20 AM 34.4°F1.3°C 31.8°F-0.1°C 90% 3.5 mph NW5.6 kmh NW 5.8 mph9.3 kmh 31.80 in1076.9 mb - 0.00 in0.0 mm 0.00 in0.0 mm
02:15 AM 34.4°F1.3°C 32.0°F0.0°C 91% 3.5 mph NW5.6 kmh NW 4.6 mph7.4 kmh 31.80 in1076.9 mb - 0.00 in0.0 mm 0.00 in0.0 mm
02:10 AM 34.4°F1.3°C 32.6°F0.3°C 93% 4.6 mph NW7.4 kmh NW 5.8 mph9.3 kmh 31.80 in1076.9 mb - 0.00 in0.0 mm 0.00 in0.0 mm
02:00 AM 34.4°F1.3°C 32.8°F0.4°C 94% 2.3 mph WNW3.7 kmh WNW 3.5 mph5.6 kmh 31.80 in1076.9 mb - 0.00 in0.0 mm 0.00 in0.0 mm
01:55 AM 34.4°F1.3°C 32.8°F0.4°C 94% 2.3 mph W3.7 kmh W 3.5 mph5.6 kmh 31.80 in1076.9 mb - 0.00 in0.0 mm 0.00 in0.0 mm
01:50 AM 34.4°F1.3°C 33.1°F0.6°C 95% 3.5 mph N5.6 kmh N 3.5 mph5.6 kmh 31.80 in1076.9 mb - 0.00 in0.0 mm 0.00 in0.0 mm
01:45 AM 34.4°F1.3°C 33.4°F0.8°C 96% 2.3 mph NW3.7 kmh NW 2.3 mph3.7 kmh 31.80 in1076.9 mb - 0.00 in0.0 mm 0.00 in0.0 mm
01:40 AM 34.4°F1.3°C 33.4°F0.8°C 96% 2.3 mph W3.7 kmh W 2.3 mph3.7 kmh 31.80 in1076.9 mb - 0.00 in0.0 mm 0.00 in0.0 mm
01:35 AM 34.4°F1.3°C 33.4°F0.8°C 96% 2.3 mph NW3.7 kmh NW 2.3 mph3.7 kmh 31.80 in1076.9 mb - 0.00 in0.0 mm 0.00 in0.0 mm
01:30 AM 34.4°F1.3°C 33.4°F0.8°C 96% Calm Calm -- 31.80 in1076.9 mb - 0.00 in0.0 mm 0.00 in0.0 mm
01:25 AM 34.4°F1.3°C 33.4°F0.8°C 96% 1.2 mph W1.9 kmh W 1.2 mph1.9 kmh 31.80 in1076.9 mb - 0.00 in0.0 mm 0.00 in0.0 mm
01:20 AM 34.4°F1.3°C 33.4°F0.8°C 96% 1.2 mph W1.9 kmh W 2.3 mph3.7 kmh 31.80 in1076.9 mb - 0.00 in0.0 mm 0.00 in0.0 mm
01:15 AM 34.4°F1.3°C 33.4°F0.8°C 96% 2.3 mph WNW3.7 kmh WNW 2.3 mph3.7 kmh 31.80 in1076.9 mb - 0.00 in0.0 mm 0.00 in0.0 mm
01:10 AM 34.4°F1.3°C 33.6°F0.9°C 97% 2.3 mph WNW3.7 kmh WNW 2.3 mph3.7 kmh 31.80 in1076.9 mb - 0.00 in0.0 mm 0.00 in0.0 mm
01:00 AM 34.4°F1.3°C 33.6°F0.9°C 97% 2.3 mph N3.7 kmh N 2.3 mph3.7 kmh 31.80 in1076.9 mb - 0.00 in0.0 mm 0.00 in0.0 mm
12:55 AM 34.4°F1.3°C 33.6°F0.9°C 97% 1.2 mph NW1.9 kmh NW 1.2 mph1.9 kmh 31.80 in1076.9 mb - 0.00 in0.0 mm 0.00 in0.0 mm
12:50 AM 34.4°F1.3°C 33.6°F0.9°C 97% 2.3 mph WNW3.7 kmh WNW 2.3 mph3.7 kmh 31.80 in1076.9 mb - 0.00 in0.0 mm 0.00 in0.0 mm
12:45 AM 34.4°F1.3°C 33.6°F0.9°C 97% 1.2 mph W1.9 kmh W 2.3 mph3.7 kmh 31.80 in1076.9 mb - 0.00 in0.0 mm 0.00 in0.0 mm
12:40 AM 34.2°F1.2°C 33.4°F0.8°C 97% 2.3 mph W3.7 kmh W 3.5 mph5.6 kmh 31.80 in1076.9 mb - 0.00 in0.0 mm 0.00 in0.0 mm
12:35 AM 34.2°F1.2°C 33.4°F0.8°C 97% 1.2 mph WNW1.9 kmh WNW 1.2 mph1.9 kmh 31.80 in1076.9 mb - 0.00 in0.0 mm 0.00 in0.0 mm
12:30 AM 34.2°F1.2°C 33.4°F0.8°C 97% 1.2 mph SW1.9 kmh SW 2.3 mph3.7 kmh 31.80 in1076.9 mb - 0.00 in0.0 mm 0.00 in0.0 mm
12:25 AM 34.2°F1.2°C 33.4°F0.8°C 97% 1.2 mph SW1.9 kmh SW 2.3 mph3.7 kmh 31.80 in1076.9 mb - 0.00 in0.0 mm 0.00 in0.0 mm
12:20 AM 34.2°F1.2°C 33.4°F0.8°C 97% 1.2 mph WNW1.9 kmh WNW 2.3 mph3.7 kmh 31.80 in1076.9 mb - 0.00 in0.0 mm 0.00 in0.0 mm
12:15 AM 34.2°F1.2°C 33.7°F0.9°C 98% 2.3 mph SW3.7 kmh SW 2.3 mph3.7 kmh 31.80 in1076.9 mb - 0.00 in0.0 mm 0.00 in0.0 mm
12:10 AM 34.2°F1.2°C 33.7°F0.9°C 98% 1.2 mph W1.9 kmh W 1.2 mph1.9 kmh 31.80 in1076.9 mb - 0.00 in0.0 mm 0.00 in0.0 mm
12:00 AM 34.4°F1.3°C 33.9°F1.1°C 98% 2.3 mph NW3.7 kmh NW 2.3 mph3.7 kmh 31.80 in1076.9 mb - 0.00 in0.0 mm 0.00 in0.0 mm